createdAt,value
2019-06-10T00:02:10.769Z,99.90
2019-06-10T00:04:41.580Z,99.90
2019-06-10T00:07:12.120Z,99.90
2019-06-10T00:09:42.282Z,99.90
2019-06-10T00:12:12.887Z,99.90
2019-06-10T00:14:43.113Z,99.90
2019-06-10T00:17:13.322Z,99.90
2019-06-10T00:19:43.636Z,99.90
2019-06-10T00:22:13.972Z,99.90
2019-06-10T00:24:44.171Z,99.90
2019-06-10T00:27:14.395Z,99.90
2019-06-10T00:29:44.266Z,99.90
2019-06-10T00:32:14.112Z,99.90
2019-06-10T00:34:44.255Z,99.90
2019-06-10T00:37:15.104Z,99.90
2019-06-10T00:39:45.426Z,99.90
2019-06-10T00:42:15.542Z,99.90
2019-06-10T00:44:45.752Z,99.90
2019-06-10T00:47:15.973Z,99.90
2019-06-10T00:49:46.277Z,99.90
2019-06-10T00:52:16.230Z,99.90
2019-06-10T00:54:46.542Z,99.90
2019-06-10T00:57:16.862Z,99.90
2019-06-10T00:59:47.172Z,99.90
2019-06-10T01:02:18.300Z,99.90
2019-06-10T01:04:51.244Z,99.90
2019-06-10T01:07:21.807Z,99.90
2019-06-10T01:09:52.267Z,99.90
2019-06-10T01:12:22.538Z,99.90
2019-06-10T01:14:52.735Z,99.90
2019-06-10T01:17:22.859Z,99.90
2019-06-10T01:19:53.557Z,99.90
2019-06-10T01:22:23.781Z,99.90
2019-06-10T01:24:53.796Z,99.90
2019-06-10T01:27:24.011Z,99.90
2019-06-10T01:29:54.276Z,99.90
2019-06-10T01:32:24.615Z,99.90
2019-06-10T01:34:54.882Z,99.90
2019-06-10T01:37:24.975Z,99.90
2019-06-10T01:39:55.230Z,99.90
2019-06-10T01:42:25.433Z,99.90
2019-06-10T01:44:55.662Z,99.90
2019-06-10T01:47:25.990Z,99.90
2019-06-10T01:49:56.234Z,99.90
2019-06-10T01:52:26.434Z,99.90
2019-06-10T01:54:56.675Z,99.90
2019-06-10T01:57:26.665Z,99.90
2019-06-10T01:59:56.561Z,99.90
2019-06-10T02:02:26.794Z,99.90
2019-06-10T02:04:57.845Z,99.90
2019-06-10T02:07:28.090Z,99.90
2019-06-10T02:09:57.987Z,99.90
2019-06-10T02:12:27.849Z,99.90
2019-06-10T02:14:57.806Z,99.90
2019-06-10T02:17:28.137Z,99.90
2019-06-10T02:19:58.394Z,99.90
2019-06-10T02:22:28.238Z,99.90
2019-06-10T02:24:58.468Z,99.90
2019-06-10T02:27:28.699Z,99.90
2019-06-10T02:30:01.550Z,99.90
2019-06-10T02:32:36.914Z,99.90
2019-06-10T02:35:10.499Z,99.90
2019-06-10T02:37:37.890Z,99.90
2019-06-10T02:40:07.131Z,99.90
2019-06-10T02:42:43.497Z,99.90
2019-06-10T02:45:17.360Z,99.90
2019-06-10T02:47:45.112Z,99.90
2019-06-10T02:50:19.760Z,99.90
2019-06-10T02:52:47.778Z,99.90
2019-06-10T02:55:20.289Z,99.90
2019-06-10T02:57:53.241Z,99.90
2019-06-10T03:00:36.062Z,99.90
2019-06-10T03:02:54.825Z,99.90
2019-06-10T03:05:30.744Z,99.90
2019-06-10T03:07:57.109Z,99.90
2019-06-10T03:10:32.545Z,99.90
2019-06-10T03:13:02.423Z,99.90
2019-06-10T03:15:33.681Z,99.90
2019-06-10T03:18:03.987Z,99.90
2019-06-10T03:20:34.210Z,99.90
2019-06-10T03:23:04.380Z,99.90
2019-06-10T03:25:34.634Z,99.90
2019-06-10T03:28:04.934Z,99.90
2019-06-10T03:30:47.867Z,99.90
2019-06-10T03:33:08.394Z,99.90
2019-06-10T03:35:42.229Z,99.90
2019-06-10T03:38:12.351Z,99.90
2019-06-10T03:40:43.398Z,99.90
2019-06-10T03:43:14.626Z,99.90
2019-06-10T03:45:46.234Z,99.90
2019-06-10T03:48:17.092Z,99.90
2019-06-10T03:50:47.476Z,99.90
2019-06-10T03:53:17.715Z,99.90
2019-06-10T03:55:48.658Z,99.90
2019-06-10T03:58:19.928Z,99.90
2019-06-10T04:00:52.276Z,99.90
2019-06-10T04:03:24.794Z,99.90
2019-06-10T04:05:56.397Z,99.90
2019-06-10T04:08:28.002Z,99.90
2019-06-10T04:10:58.760Z,99.90
2019-06-10T04:13:29.029Z,99.90
2019-06-10T04:16:02.167Z,99.90
2019-06-10T04:18:33.923Z,99.90
2019-06-10T04:21:08.107Z,99.90
2019-06-10T04:23:38.667Z,99.90
2019-06-10T04:26:08.937Z,99.90
2019-06-10T04:28:39.168Z,99.90
2019-06-10T04:31:09.339Z,99.90
2019-06-10T04:33:41.956Z,99.90
2019-06-10T04:36:13.496Z,99.90
2019-06-10T04:38:43.426Z,99.90
2019-06-10T04:41:13.686Z,99.90
2019-06-10T04:43:43.998Z,99.90
2019-06-10T04:46:14.274Z,99.90
2019-06-10T04:48:44.445Z,99.90
2019-06-10T04:51:14.771Z,99.90
2019-06-10T04:53:44.957Z,99.90
2019-06-10T04:56:15.108Z,99.90
2019-06-10T04:58:45.425Z,99.90
2019-06-10T05:01:15.654Z,99.90
2019-06-10T05:03:46.090Z,99.90
2019-06-10T05:06:16.469Z,99.90
2019-06-10T05:08:46.686Z,99.90
2019-06-10T05:11:16.909Z,99.90
2019-06-10T05:13:47.122Z,99.90
2019-06-10T05:16:17.169Z,99.90
2019-06-10T05:18:47.243Z,99.90
2019-06-10T05:21:17.519Z,99.90
2019-06-10T05:23:47.734Z,99.90
2019-06-10T05:26:18.017Z,99.90
2019-06-10T05:28:48.284Z,99.90
2019-06-10T05:31:18.477Z,99.90
2019-06-10T05:33:48.640Z,99.90
2019-06-10T05:36:18.947Z,99.90
2019-06-10T05:38:49.178Z,99.90
2019-06-10T05:41:19.188Z,99.90
2019-06-10T05:43:52.469Z,99.90
2019-06-10T05:46:24.312Z,99.90
2019-06-10T05:48:54.545Z,99.90
2019-06-10T05:51:26.113Z,99.90
2019-06-10T05:53:56.640Z,99.90
2019-06-10T05:56:27.197Z,99.90
2019-06-10T05:58:57.561Z,99.90
2019-06-10T06:01:28.211Z,99.90
2019-06-10T06:03:58.344Z,99.90
2019-06-10T06:06:29.145Z,99.90
2019-06-10T06:09:02.171Z,99.90
2019-06-10T06:11:33.418Z,99.90
2019-06-10T06:14:03.826Z,99.90
2019-06-10T06:16:36.087Z,99.90
2019-06-10T06:19:06.115Z,99.90
2019-06-10T06:21:42.740Z,99.90
2019-06-10T06:24:08.245Z,99.90
2019-06-10T06:26:39.738Z,99.90
2019-06-10T06:29:10.122Z,99.90
2019-06-10T06:31:42.706Z,99.90
2019-06-10T06:34:13.912Z,99.90
2019-06-10T06:36:44.081Z,99.90
2019-06-10T06:39:14.382Z,99.90
2019-06-10T06:41:44.614Z,99.90
2019-06-10T06:44:14.788Z,99.90
2019-06-10T06:46:44.938Z,99.90
2019-06-10T06:49:15.235Z,99.90
2019-06-10T06:51:54.677Z,99.90
2019-06-10T06:54:17.201Z,99.90
2019-06-10T06:56:47.551Z,99.90
2019-06-10T06:59:17.961Z,99.90
2019-06-10T07:01:47.976Z,99.90
2019-06-10T07:04:18.393Z,99.90
2019-06-10T07:06:52.681Z,99.90
2019-06-10T07:09:22.631Z,99.90
2019-06-10T07:11:54.083Z,99.90
2019-06-10T07:14:25.785Z,99.90
2019-06-10T07:16:56.064Z,99.90
2019-06-10T07:19:26.281Z,99.90
2019-06-10T07:22:08.313Z,99.90
2019-06-10T07:24:28.508Z,99.90
2019-06-10T07:26:58.741Z,99.90
2019-06-10T07:29:28.942Z,99.90
2019-06-10T07:31:59.179Z,99.90
2019-06-10T07:34:29.448Z,99.90
2019-06-10T07:37:06.934Z,99.90
2019-06-10T07:39:38.373Z,99.90
2019-06-10T07:42:09.125Z,99.90
2019-06-10T07:44:39.384Z,99.90
2019-06-10T07:47:09.618Z,99.90
2019-06-10T07:49:41.269Z,99.90
2019-06-10T07:52:18.492Z,99.90
2019-06-10T07:54:45.269Z,99.90
2019-06-10T07:57:16.018Z,99.90
2019-06-10T07:59:46.314Z,99.90
2019-06-10T08:02:16.774Z,99.90
2019-06-10T08:04:47.026Z,99.90
2019-06-10T08:07:17.188Z,99.90
2019-06-10T08:09:47.546Z,99.90
2019-06-10T08:12:23.271Z,99.90
2019-06-10T08:14:53.585Z,99.90
2019-06-10T08:17:23.983Z,99.90
2019-06-10T08:19:54.515Z,99.90
2019-06-10T08:22:33.237Z,99.90
2019-06-10T08:24:56.694Z,99.90
2019-06-10T08:27:26.936Z,99.90
2019-06-10T08:30:14.222Z,99.90
2019-06-10T08:32:29.152Z,99.90
2019-06-10T08:34:59.016Z,99.90
2019-06-10T08:37:29.257Z,99.90
2019-06-10T08:39:59.158Z,99.90
2019-06-10T08:42:29.102Z,99.90
2019-06-10T08:44:59.983Z,99.90
2019-06-10T08:47:32.445Z,99.90
2019-06-10T08:50:02.720Z,99.90
2019-06-10T08:52:49.477Z,99.90
2019-06-10T08:55:04.570Z,99.90
2019-06-10T08:57:35.006Z,99.90
2019-06-10T09:00:11.713Z,99.90
2019-06-10T09:02:39.143Z,99.90
2019-06-10T09:05:13.052Z,99.90
2019-06-10T09:07:47.732Z,99.90
2019-06-10T09:10:14.885Z,99.90
2019-06-10T09:12:49.147Z,99.90
2019-06-10T09:15:17.884Z,99.90
2019-06-10T09:17:51.807Z,99.90
2019-06-10T09:20:22.790Z,99.90
2019-06-10T09:23:13.942Z,99.90
2019-06-10T09:25:23.320Z,99.90
2019-06-10T09:27:54.717Z,99.90
2019-06-10T09:30:25.049Z,99.90
2019-06-10T09:32:56.865Z,99.90
2019-06-10T09:35:26.638Z,99.90
2019-06-10T09:37:56.926Z,99.90
2019-06-10T09:40:48.891Z,99.90
2019-06-10T09:43:17.086Z,99.90
2019-06-10T09:45:50.280Z,99.90
2019-06-10T09:48:22.896Z,99.90
2019-06-10T09:50:57.818Z,99.90
2019-06-10T09:53:33.847Z,99.90
2019-06-10T09:55:56.768Z,99.90
2019-06-10T09:58:26.775Z,99.90
2019-06-10T10:00:58.848Z,99.90
2019-06-10T10:03:28.855Z,99.90
2019-06-10T10:06:09.985Z,99.90
2019-06-10T10:08:32.619Z,99.90
2019-06-10T10:11:02.008Z,99.90
2019-06-10T10:13:35.417Z,99.90
2019-06-10T10:16:04.634Z,99.90
2019-06-10T10:18:34.712Z,99.90
2019-06-10T10:21:04.721Z,99.90
2019-06-10T10:23:50.434Z,99.90
2019-06-10T10:26:06.193Z,99.90
2019-06-10T10:28:36.102Z,99.90
2019-06-10T10:31:06.113Z,99.90
2019-06-10T10:33:36.010Z,99.90
2019-06-10T10:36:05.997Z,99.90
2019-06-10T10:38:36.009Z,99.90
2019-06-10T10:41:07.227Z,99.90
2019-06-10T10:43:38.024Z,99.90
2019-06-10T10:46:08.097Z,99.90
2019-06-10T10:48:37.965Z,99.90
2019-06-10T10:51:07.917Z,99.90
2019-06-10T10:53:39.031Z,99.90
2019-06-10T10:56:12.986Z,99.90
2019-06-10T10:58:45.450Z,99.90
2019-06-10T11:01:16.515Z,99.90
2019-06-10T11:03:48.230Z,99.90
2019-06-10T11:06:19.974Z,99.90
2019-06-10T11:08:50.019Z,99.90
2019-06-10T11:11:22.827Z,99.90
2019-06-10T11:13:56.794Z,99.90
2019-06-10T11:16:27.606Z,99.90
2019-06-10T11:18:58.079Z,99.90
2019-06-10T11:21:28.090Z,99.90
2019-06-10T11:24:01.529Z,99.90
2019-06-10T11:26:32.166Z,99.90
2019-06-10T11:29:02.970Z,99.90
2019-06-10T11:31:32.893Z,99.90
2019-06-10T11:34:03.274Z,99.90
2019-06-10T11:36:33.575Z,99.90
2019-06-10T11:39:03.430Z,99.90
2019-06-10T11:41:33.379Z,99.90
2019-06-10T11:44:04.926Z,99.90
2019-06-10T11:46:34.803Z,99.90
2019-06-10T11:49:04.841Z,99.90
2019-06-10T11:51:34.733Z,99.90
2019-06-10T11:54:06.069Z,99.90
2019-06-10T11:56:37.282Z,99.90
2019-06-10T11:59:09.619Z,99.90
2019-06-10T12:01:39.650Z,99.90
2019-06-10T12:04:09.610Z,99.90
2019-06-10T12:06:39.662Z,99.90
2019-06-10T12:09:10.278Z,99.90
2019-06-10T12:11:43.472Z,99.90
2019-06-10T12:14:13.039Z,99.90
2019-06-10T12:17:29.786Z,99.90
2019-06-10T12:19:34.058Z,99.90
2019-06-10T12:22:07.446Z,99.90
2019-06-10T12:24:36.422Z,99.90
2019-06-10T12:27:06.383Z,99.90
2019-06-10T12:29:36.308Z,99.90
2019-06-10T12:32:07.485Z,99.90
2019-06-10T12:34:37.570Z,99.90
2019-06-10T12:37:11.992Z,99.90
2019-06-10T12:39:39.130Z,99.90
2019-06-10T12:42:11.068Z,99.90
2019-06-10T12:44:42.703Z,99.90
2019-06-10T12:47:12.189Z,99.90
2019-06-10T12:49:42.745Z,99.90
2019-06-10T12:52:12.888Z,99.90
2019-06-10T12:54:42.794Z,99.90
2019-06-10T12:57:15.576Z,99.90
2019-06-10T12:59:44.345Z,99.90
2019-06-10T13:02:22.526Z,99.90
2019-06-10T13:04:46.490Z,99.90
2019-06-10T13:07:18.795Z,99.90
2019-06-10T13:09:48.772Z,99.90
2019-06-10T13:12:18.616Z,99.90
2019-06-10T13:14:51.913Z,99.90
2019-06-10T13:17:20.998Z,99.90
2019-06-10T13:19:50.929Z,99.90
2019-06-10T13:22:22.972Z,99.90
2019-06-10T13:24:53.514Z,99.90
2019-06-10T13:27:23.580Z,99.90
2019-06-10T13:29:53.526Z,99.90
2019-06-10T13:32:23.407Z,99.90
2019-06-10T13:34:53.273Z,99.90
2019-06-10T13:37:23.173Z,99.90
2019-06-10T13:39:53.041Z,99.90
2019-06-10T13:42:22.981Z,99.90
2019-06-10T13:44:53.186Z,99.90
2019-06-10T13:47:26.039Z,99.90
2019-06-10T13:49:54.796Z,99.90
2019-06-10T13:52:24.689Z,99.90
2019-06-10T13:54:54.573Z,99.90
2019-06-10T13:57:24.630Z,99.90
2019-06-10T13:59:54.560Z,99.90
2019-06-10T14:02:24.894Z,99.90
2019-06-10T14:04:55.492Z,99.90
2019-06-10T14:07:25.434Z,99.90
2019-06-10T14:09:55.340Z,99.90
2019-06-10T14:12:25.202Z,99.90
2019-06-10T14:14:55.413Z,99.90
2019-06-10T14:17:26.226Z,99.90
2019-06-10T14:19:56.112Z,99.90
2019-06-10T14:22:26.045Z,99.90
2019-06-10T14:24:55.936Z,99.90
2019-06-10T14:27:25.802Z,99.90
2019-06-10T14:29:55.720Z,99.90
2019-06-10T14:32:25.659Z,99.90
2019-06-10T14:34:55.517Z,99.90
2019-06-10T14:37:38.569Z,99.90
2019-06-10T14:39:57.114Z,99.90
2019-06-10T14:42:26.989Z,99.90
2019-06-10T14:44:56.946Z,99.90
2019-06-10T14:47:26.834Z,99.90
2019-06-10T14:49:57.400Z,99.90
2019-06-10T14:52:27.334Z,99.90
2019-06-10T14:54:57.667Z,99.90
2019-06-10T14:57:27.683Z,99.90
2019-06-10T14:59:57.627Z,99.90
2019-06-10T15:02:27.525Z,99.90
2019-06-10T15:04:57.402Z,99.90
2019-06-10T15:07:27.361Z,99.90
2019-06-10T15:09:57.482Z,99.20
2019-06-10T15:12:27.342Z,95.90
2019-06-10T15:14:57.370Z,94.00
2019-06-10T15:17:27.234Z,95.10
2019-06-10T15:19:57.370Z,93.80
2019-06-10T15:22:27.860Z,91.00
2019-06-10T15:24:58.095Z,90.40
2019-06-10T15:27:31.672Z,87.10
2019-06-10T15:30:00.154Z,90.10
2019-06-10T15:32:34.655Z,88.00
2019-06-10T15:35:03.335Z,84.90
2019-06-10T15:37:33.157Z,86.20
2019-06-10T15:40:03.690Z,88.80
2019-06-10T15:42:33.673Z,86.50
2019-06-10T15:45:03.658Z,87.40
2019-06-10T15:47:33.526Z,89.00
2019-06-10T15:50:04.099Z,89.20
2019-06-10T15:52:34.043Z,87.30
2019-06-10T15:55:04.279Z,89.00
2019-06-10T15:57:40.707Z,90.50
2019-06-10T16:00:12.271Z,90.00
2019-06-10T16:02:39.598Z,86.60
2019-06-10T16:05:09.483Z,85.90
2019-06-10T16:07:42.374Z,84.30
2019-06-10T16:10:32.696Z,83.50
2019-06-10T16:13:03.611Z,85.60
2019-06-10T16:15:33.472Z,85.90
2019-06-10T16:18:05.276Z,84.80
2019-06-10T16:20:36.342Z,86.30
2019-06-10T16:23:06.485Z,85.30
2019-06-10T16:25:42.452Z,85.70
2019-06-10T16:28:12.856Z,84.80
2019-06-10T16:30:43.302Z,86.50
2019-06-10T16:33:14.637Z,85.90
2019-06-10T16:35:44.747Z,85.20
2019-06-10T16:38:14.910Z,86.00
2019-06-10T16:40:44.934Z,87.10
2019-06-10T16:43:15.646Z,88.80
2019-06-10T16:45:45.574Z,88.00
2019-06-10T16:48:18.989Z,88.90
2019-06-10T16:50:49.006Z,89.00
2019-06-10T16:53:19.893Z,90.20
2019-06-10T16:55:52.965Z,90.20
2019-06-10T16:58:26.244Z,90.80
2019-06-10T17:00:54.059Z,91.80
2019-06-10T17:03:26.811Z,91.70
2019-06-10T17:05:55.457Z,92.20
2019-06-10T17:08:28.297Z,92.90
2019-06-10T17:10:56.938Z,93.40
2019-06-10T17:13:28.986Z,93.60
2019-06-10T17:16:00.295Z,94.00
2019-06-10T17:18:33.603Z,94.20
2019-06-10T17:21:04.632Z,94.60
2019-06-10T17:23:36.463Z,95.00
2019-06-10T17:26:06.204Z,95.50
2019-06-10T17:28:37.022Z,95.30
2019-06-10T17:31:07.278Z,96.20
2019-06-10T17:33:37.106Z,96.40
2019-06-10T17:36:07.517Z,96.50
2019-06-10T17:38:37.372Z,96.90
2019-06-10T17:41:07.341Z,96.90
2019-06-10T17:43:37.275Z,96.70
2019-06-10T17:46:07.742Z,96.90
2019-06-10T17:48:37.904Z,97.70
2019-06-10T17:51:08.781Z,98.00
2019-06-10T17:53:38.755Z,98.70
2019-06-10T17:56:08.618Z,99.20
2019-06-10T17:58:51.671Z,99.90
2019-06-10T18:01:10.032Z,99.90
2019-06-10T18:03:42.889Z,99.90
2019-06-10T18:06:13.343Z,99.90
2019-06-10T18:08:43.478Z,99.90
2019-06-10T18:11:13.402Z,99.90
2019-06-10T18:13:43.270Z,99.90
2019-06-10T18:16:13.372Z,99.90
2019-06-10T18:18:43.338Z,99.90
2019-06-10T18:21:13.263Z,99.90
2019-06-10T18:23:44.122Z,99.90
2019-06-10T18:26:14.024Z,99.90
2019-06-10T18:29:00.452Z,99.90
2019-06-10T18:31:18.792Z,99.90
2019-06-10T18:33:49.846Z,99.90
2019-06-10T18:36:24.471Z,99.90
2019-06-10T18:38:54.276Z,99.90
2019-06-10T18:41:31.615Z,99.90
2019-06-10T18:44:02.298Z,99.90
2019-06-10T18:46:33.324Z,99.90
2019-06-10T18:49:03.901Z,99.90
2019-06-10T18:51:35.585Z,99.90
2019-06-10T18:54:08.914Z,99.90
2019-06-10T18:56:39.968Z,99.90
2019-06-10T18:59:19.586Z,99.90
2019-06-10T19:01:42.349Z,99.90
2019-06-10T19:04:13.028Z,99.90
2019-06-10T19:06:43.344Z,99.90
2019-06-10T19:09:13.344Z,99.90
2019-06-10T19:11:43.567Z,99.90
2019-06-10T19:14:13.577Z,99.90
2019-06-10T19:16:43.503Z,99.90
2019-06-10T19:19:13.346Z,99.90
2019-06-10T19:21:44.082Z,99.90
2019-06-10T19:24:14.361Z,99.90
2019-06-10T19:26:45.360Z,99.90
2019-06-10T19:29:30.054Z,99.90
2019-06-10T19:31:46.876Z,99.90
2019-06-10T19:34:16.833Z,99.90
2019-06-10T19:36:46.730Z,99.90
2019-06-10T19:39:16.658Z,99.90
2019-06-10T19:41:47.472Z,99.90
2019-06-10T19:44:17.645Z,99.90
2019-06-10T19:46:47.763Z,99.90
2019-06-10T19:49:17.586Z,99.90
2019-06-10T19:51:47.502Z,99.90
2019-06-10T19:54:17.530Z,99.90
2019-06-10T19:56:47.530Z,99.90
2019-06-10T19:59:17.482Z,99.90
2019-06-10T20:01:48.795Z,99.90
2019-06-10T20:04:18.843Z,99.90
2019-06-10T20:06:50.749Z,99.90
2019-06-10T20:09:22.469Z,99.90
2019-06-10T20:11:51.811Z,99.90
2019-06-10T20:14:21.740Z,99.90
2019-06-10T20:16:52.663Z,99.90
2019-06-10T20:19:22.966Z,99.90
2019-06-10T20:21:52.953Z,99.90
2019-06-10T20:24:22.863Z,99.90
2019-06-10T20:26:52.930Z,99.90
2019-06-10T20:29:24.054Z,99.90
2019-06-10T20:31:53.989Z,99.90
2019-06-10T20:34:25.756Z,99.90
2019-06-10T20:36:55.554Z,99.90
2019-06-10T20:39:25.470Z,99.90
2019-06-10T20:41:55.973Z,99.90
2019-06-10T20:44:25.975Z,99.90
2019-06-10T20:46:55.920Z,99.90
2019-06-10T20:49:25.792Z,99.90
2019-06-10T20:52:08.090Z,99.90
2019-06-10T20:54:27.233Z,99.90
2019-06-10T20:56:57.092Z,99.90
2019-06-10T20:59:26.949Z,99.90
2019-06-10T21:01:56.863Z,99.90
2019-06-10T21:04:26.727Z,99.90
2019-06-10T21:06:57.454Z,99.90
2019-06-10T21:09:28.390Z,99.90
2019-06-10T21:11:58.262Z,99.90
2019-06-10T21:14:28.139Z,99.90
2019-06-10T21:16:58.077Z,99.90
2019-06-10T21:19:27.919Z,99.90
2019-06-10T21:21:57.863Z,99.90
2019-06-10T21:24:27.905Z,99.90
2019-06-10T21:26:57.846Z,99.90
2019-06-10T21:29:27.702Z,99.90
2019-06-10T21:31:58.574Z,99.90
2019-06-10T21:34:28.451Z,99.90
2019-06-10T21:36:58.371Z,99.90
2019-06-10T21:39:28.287Z,99.90
2019-06-10T21:41:58.243Z,99.90
2019-06-10T21:44:28.083Z,99.90
2019-06-10T21:46:58.095Z,99.90
2019-06-10T21:49:27.953Z,99.90
2019-06-10T21:51:57.833Z,99.90
2019-06-10T21:54:27.762Z,99.90
2019-06-10T21:56:57.637Z,99.90
2019-06-10T21:59:27.522Z,99.90
2019-06-10T22:01:57.576Z,99.90
2019-06-10T22:04:27.559Z,99.90
2019-06-10T22:06:57.426Z,99.90
2019-06-10T22:09:27.350Z,99.90
2019-06-10T22:11:57.214Z,99.90
2019-06-10T22:14:27.196Z,99.90
2019-06-10T22:16:57.157Z,99.90
2019-06-10T22:19:27.047Z,99.90
2019-06-10T22:21:57.368Z,99.90
2019-06-10T22:24:27.290Z,99.90
2019-06-10T22:26:57.175Z,99.90
2019-06-10T22:29:27.058Z,99.90
2019-06-10T22:31:57.325Z,99.90
2019-06-10T22:34:27.402Z,99.90
2019-06-10T22:36:57.660Z,99.90
2019-06-10T22:39:27.888Z,99.90
2019-06-10T22:41:57.755Z,99.90
2019-06-10T22:44:27.638Z,99.90
2019-06-10T22:46:57.575Z,99.90
2019-06-10T22:49:27.441Z,99.90
2019-06-10T22:51:58.971Z,99.90
2019-06-10T22:54:28.866Z,99.90
2019-06-10T22:57:00.045Z,99.90
2019-06-10T22:59:30.498Z,99.90
2019-06-10T23:02:02.846Z,99.90
2019-06-10T23:04:33.230Z,99.90
2019-06-10T23:07:03.417Z,99.90
2019-06-10T23:09:33.357Z,99.90
2019-06-10T23:12:03.238Z,99.90
2019-06-10T23:14:33.340Z,99.90
2019-06-10T23:17:03.369Z,99.90
2019-06-10T23:19:33.420Z,99.90
2019-06-10T23:22:03.378Z,99.90
2019-06-10T23:24:33.262Z,99.90
2019-06-10T23:27:03.584Z,99.90
2019-06-10T23:29:33.686Z,99.90
2019-06-10T23:32:07.065Z,99.90
2019-06-10T23:34:35.096Z,99.90
2019-06-10T23:37:06.131Z,99.90
2019-06-10T23:39:36.001Z,99.90
2019-06-10T23:42:06.168Z,99.90
2019-06-10T23:44:36.110Z,99.90
2019-06-10T23:47:06.059Z,99.90
2019-06-10T23:49:35.918Z,99.90
2019-06-10T23:52:06.035Z,99.90
2019-06-10T23:54:36.201Z,99.90
2019-06-10T23:57:06.497Z,99.90
2019-06-10T23:59:36.799Z,99.90
